Terminal Aerodrome Forecast
Issued by NWS Melbourne, FL

Home | Current Version | Previous Version | Text Only | Print | Product List | Glossary On
Versions: 1 2 3 4 5 6 7 8 9 10 11 12 13
000
FTUS42 KMLB 302320
TAFVRB
TAF
KVRB 302320Z 3100/3124 16007KT P6SM SCT022 BKN080
     FM310900 18009KT P6SM VCSH FEW020
     FM311200 19009KT P6SM VCSH SCT025 BKN250
     FM311800 21013KT P6SM VCSH SCT030 OVC060=

USA.gov is the U.S. government's official web portal to all federal, state and local government web resources and services.